Flight Track Log - Related Links

Times and Time Zones

All times are in EDT time to prevent confusion due to time zone crossing. See the JBU1459 flight status page for this flight to view local times or setup timezone preferences in your user account.

Time Position Orientation Groundspeed Altitude Reporting Facility
EDT Latitude Longitude Course Direction KTS MPH feet Rate Location/Type
Wed 06:40:01 PM 41.9289 -72.6992 175° South 150 173 800  Level Boston Center
Wed 06:41:11 PM 41.8817 -72.7542 221° Southwest 187 215 2,700 1,553 Climbing Boston Center
Wed 06:41:26 PM 41.8678 -72.7669 214° Southwest 232 267 3,000 2,164 Climbing Boston Center
Wed 06:42:12 PM 41.8108 -72.7647 178° South 287 330 4,900 2,752 Climbing Boston Center
Wed 06:43:00 PM 41.5338 -72.3785 129° Southeast  Level FlightAware Approximate
Wed 06:43:15 PM 41.7456 -72.6781 135° Southeast 308 354 8,000  Level Boston Center
Wed 06:44:00 PM 41.4244 -72.3490 175° South  Level FlightAware Approximate
Wed 06:44:16 PM 41.6789 -72.5953 137° Southeast 324 373 10,500  Level Boston Center
Wed 06:45:00 PM 41.3052 -72.3358 175° South  Level FlightAware Approximate
Wed 06:45:17 PM 41.6056 -72.4947 134° Southeast 390 449 11,500  Level Boston Center
Wed 06:46:18 PM 41.5225 -72.3700 132° Southeast 417 480 13,800 2,213 Climbing Boston Center
Wed 06:47:19 PM 41.4094 -72.3517 173° South 410 472 16,000 1,920 Climbing Boston Center
Wed 06:48:23 PM 41.2961 -72.3525 180° South 409 471 17,800 1,920 Climbing Boston Center
Wed 06:49:24 PM 41.2131 -72.4431 219° Southwest 385 443 20,000 1,869 Climbing Boston Center
Wed 06:50:25 PM 41.1356 -72.5408 224° Southwest 383 441 21,600 1,548 Climbing Boston Center
Wed 06:51:28 PM 41.0558 -72.6417 224° Southwest 392 451 23,200 1,268 Climbing Boston Center
Wed 06:52:28 PM 40.9767 -72.7419 224° Southwest 392 451 24,200 1,091 Climbing Boston Center
Wed 06:53:29 PM 40.8792 -72.8236 212° Southwest 413 475 25,400 1,008 Climbing Boston Center
Wed 06:54:33 PM 40.7700 -72.8833 203° Southwest 423 487 26,300 823 Climbing Boston Center
Wed 06:55:33 PM 40.6367 -72.9650 205° Southwest 433 498 27,100 878 Climbing Boston Center
Wed 06:56:36 PM 40.5439 -73.0681 220° Southwest 438 504 28,100 912 Climbing Boston Center
Wed 06:57:38 PM 40.4464 -73.1669 218° Southwest 440 506 29,000 976 Climbing Boston Center
Wed 06:58:39 PM 40.3478 -73.2642 217° Southwest 441 507 30,100 942 Climbing Boston Center
Wed 06:59:39 PM 40.2478 -73.3647 218° Southwest 449 517 30,900 836 Climbing Boston Center
Wed 07:00:41 PM 40.1500 -73.4611 217° Southwest 450 518 31,800 857 Climbing Boston Center
Wed 07:01:38 PM 40.0400 -73.5672 216° Southwest 456 525 32,600 835 Climbing Washington Center
Wed 07:02:36 PM 39.9356 -73.6703 217° Southwest 461 531 33,400 857 Climbing Washington Center
Wed 07:03:37 PM 39.8331 -73.7731 218° Southwest 467 537 34,300 836 Climbing Washington Center
Wed 07:04:38 PM 39.7283 -73.8756 217° Southwest 474 545 35,100 722 Climbing Washington Center
Wed 07:05:50 PM 39.6086 -73.9936 217° Southwest 466 536 35,900 450 Climbing Boston Center
Wed 07:06:38 PM 39.5225 -74.0769 217° Southwest 474 545 36,000  Climbing Washington Center
Wed 07:07:36 PM 39.4217 -74.1758 217° Southwest 474 545 35,900  Descending Washington Center
Wed 07:08:38 PM 39.3125 -74.2797 216° Southwest 474 545 36,000 49 Climbing Washington Center
Wed 07:09:39 PM 39.2114 -74.3781 217° Southwest 474 545 36,000 -51 Level Washington Center
Wed 07:10:36 PM 39.1081 -74.4736 216° Southwest 474 545 35,900 -50 Descending Washington Center
Wed 07:11:38 PM 38.9964 -74.5581 210° Southwest 474 545 35,900 49 Level Washington Center
Wed 07:12:38 PM 38.8844 -74.6450 211° Southwest 469 540 36,000 50 Climbing Washington Center
Wed 07:13:37 PM 38.7767 -74.7261 210° Southwest 469 540 36,000  Level Washington Center
Wed 07:14:37 PM 38.6667 -74.8100 211° Southwest 463 533 36,000  Level Washington Center
Wed 07:15:38 PM 38.5567 -74.8961 211° Southwest 463 533 36,000 -50 Level Washington Center
Wed 07:16:37 PM 38.4508 -74.9739 210° Southwest 463 533 35,900 -50 Descending Washington Center
Wed 07:17:37 PM 38.3428 -75.0569 211° Southwest 457 526 35,900  Level Washington Center
Wed 07:18:37 PM 38.2514 -75.1289 212° Southwest 457 526 35,900  Level Washington Center
Wed 07:19:38 PM 38.1433 -75.2117 211° Southwest 452 520 35,900  Level Washington Center
Wed 07:20:38 PM 38.0372 -75.2911 211° Southwest 447 514 35,900 51 Level Washington Center
Wed 07:21:36 PM 37.9289 -75.3706 210° Southwest 447 514 36,000 50 Climbing Washington Center
Wed 07:22:37 PM 37.8206 -75.4497 210° Southwest 452 520 36,000  Level Washington Center
Wed 07:23:37 PM 37.7142 -75.5289 210° Southwest 452 520 36,000 -50 Level Washington Center
Wed 07:24:38 PM 37.6058 -75.6075 210° Southwest 452 520 35,900 -49 Descending Washington Center
Wed 07:25:39 PM 37.4975 -75.6861 210° Southwest 452 520 35,900  Level Washington Center
Wed 07:26:37 PM 37.3908 -75.7644 210° Southwest 452 520 35,900  Level Washington Center
Wed 07:27:38 PM 37.2822 -75.8425 210° Southwest 452 520 35,900 50 Level Washington Center
Wed 07:28:38 PM 37.1758 -75.9203 210° Southwest 452 520 36,000 50 Climbing Washington Center
Wed 07:29:37 PM 37.0711 -75.9953 210° Southwest 452 520 36,000  Level Washington Center
Wed 07:30:37 PM 36.9436 -76.0806 208° Southwest 458 527 36,000  Level Washington Center
Wed 07:31:38 PM 36.8369 -76.1578 210° Southwest 458 527 36,000  Level Washington Center
Wed 07:32:39 PM 36.7281 -76.2347 210° Southwest 458 527 36,000 -50 Level Washington Center
Wed 07:33:37 PM 36.6317 -76.3064 211° Southwest 458 527 35,900 -50 Descending Washington Center
Wed 07:34:38 PM 36.5247 -76.3828 210° Southwest 458 527 35,900  Level Washington Center
Wed 07:35:38 PM 36.4178 -76.4567 209° Southwest 453 521 35,900  Level Washington Center
Wed 07:36:36 PM 36.3108 -76.5328 210° Southwest 453 521 35,900  Level Washington Center
Wed 07:37:37 PM 36.1997 -76.6086 209° Southwest 453 521 35,900 50 Level Washington Center
Wed 07:38:37 PM 36.0928 -76.6819 209° Southwest 453 521 36,000 50 Climbing Washington Center
Wed 07:39:36 PM 35.9833 -76.7600 210° Southwest 453 521 36,000  Level Washington Center
Wed 07:40:37 PM 35.8764 -76.8353 210° Southwest 453 521 36,000 -50 Level Washington Center
Wed 07:41:37 PM 35.7650 -76.9103 209° Southwest 453 521 35,900 -50 Descending Washington Center
Wed 07:42:38 PM 35.6597 -76.9853 210° Southwest 453 521 35,900 50 Level Washington Center
Wed 07:43:37 PM 35.5525 -77.0625 210° Southwest 453 521 36,000 50 Climbing Washington Center
Wed 07:44:38 PM 35.4408 -77.1369 209° Southwest 453 521 36,000  Level Washington Center
Wed 07:45:38 PM 35.3314 -77.2139 210° Southwest 453 521 36,000  Level Washington Center
Wed 07:46:37 PM 35.2219 -77.2853 208° Southwest 453 521 36,000  Level Washington Center
Wed 07:47:37 PM 35.1103 -77.3617 209° Southwest 453 521 36,000  Level Washington Center
Wed 07:48:38 PM 35.0006 -77.4353 209° Southwest 458 527 36,000  Level Washington Center
Wed 07:49:36 PM 34.8908 -77.5089 209° Southwest 463 533 36,000 -50 Level Washington Center
Wed 07:50:37 PM 34.7664 -77.5969 210° Southwest 468 539 35,900  Descending Washington Center
Wed 07:51:37 PM 34.6567 -77.6725 210° Southwest 468 539 36,000  Climbing Washington Center
Wed 07:52:37 PM 34.5467 -77.7478 209° Southwest 468 539 35,900 -49 Descending Washington Center
Wed 07:53:39 PM 34.4369 -77.8206 209° Southwest 463 533 35,900 30 Level Washington Center
Wed 07:55:58 PM 34.1497 -77.9269 197° South 482 555 36,000 30 Climbing Jacksonville Center
Wed 07:56:58 PM 34.0239 -77.9617 193° South 476 548 36,000  Level Jacksonville Center
Wed 07:57:58 PM 33.9022 -78.0011 195° South 468 539 36,000  Level Jacksonville Center
Wed 07:58:58 PM 33.7806 -78.0353 193° South 461 531 36,000 -50 Level Jacksonville Center
Wed 07:59:58 PM 33.6547 -78.0772 196° South 461 531 35,900  Descending Jacksonville Center
Wed 08:00:58 PM 33.5308 -78.1114 193° South 461 531 36,000  Climbing Jacksonville Center
Wed 08:01:58 PM 33.4092 -78.1478 194° South 461 531 35,900 -50 Descending Jacksonville Center
Wed 08:02:58 PM 33.2853 -78.1817 193° South 461 531 35,900  Level Jacksonville Center
Wed 08:03:58 PM 33.1633 -78.2156 193° South 461 531 35,900 50 Level Jacksonville Center
Wed 08:04:58 PM 33.0394 -78.2492 193° South 461 531 36,000 50 Climbing Jacksonville Center
Wed 08:05:58 PM 32.9175 -78.2828 193° South 461 531 36,000 -50 Level Jacksonville Center
Wed 08:06:58 PM 32.7956 -78.3186 194° South 461 531 35,900 -50 Descending Jacksonville Center
Wed 08:07:58 PM 32.6717 -78.3544 194° South 461 531 35,900 50 Level Jacksonville Center
Wed 08:08:58 PM 32.5478 -78.3903 194° South 461 531 36,000 50 Climbing Jacksonville Center
Wed 08:09:58 PM 32.4236 -78.4208 192° South 461 531 36,000  Level Jacksonville Center
Wed 08:10:58 PM 32.3183 -78.4531 195° South 456 525 36,000 -50 Level Jacksonville Center
Wed 08:11:58 PM 32.1986 -78.4908 195° South 451 519 35,900 -50 Descending Jacksonville Center
Wed 08:12:58 PM 32.0767 -78.5236 193° South 451 519 35,900 50 Level Jacksonville Center
Wed 08:13:58 PM 31.9547 -78.5614 195° South 451 519 36,000 50 Climbing Jacksonville Center
Wed 08:14:58 PM 31.8328 -78.5964 194° South 451 519 36,000  Level Jacksonville Center
Wed 08:15:58 PM 31.7128 -78.6289 193° South 451 519 36,000 -50 Level Jacksonville Center
Wed 08:16:58 PM 31.5867 -78.6686 195° South 456 525 35,900  Descending Jacksonville Center
Wed 08:17:58 PM 31.4669 -78.7033 194° South 451 519 36,000 50 Climbing Jacksonville Center
Wed 08:18:58 PM 31.3467 -78.7331 192° South 451 519 36,000 -50 Level Jacksonville Center
Wed 08:19:58 PM 31.2247 -78.7678 194° South 451 519 35,900  Descending Jacksonville Center
Wed 08:20:58 PM 31.1047 -78.8044 195° South 451 519 36,000  Climbing Jacksonville Center
Wed 08:21:58 PM 30.9764 -78.8367 192° South 452 520 35,900  Descending Jacksonville Center
Wed 08:22:58 PM 30.8606 -78.8731 195° South 452 520 36,000 50 Climbing Jacksonville Center
Wed 08:23:58 PM 30.7325 -78.9100 194° South 439 505 36,000 -50 Level Jacksonville Center
Wed 08:24:58 PM 30.6125 -78.9439 194° South 439 505 35,900  Descending Jacksonville Center
Wed 08:25:54 PM 30.5025 -78.9733 193° South 442 509 36,000 51 Climbing Miami Center
Wed 08:26:55 PM 30.3836 -79.0058 193° South 440 506 36,000  Level Miami Center
Wed 08:27:56 PM 30.2664 -79.0375 193° South 435 501 36,000 -49 Level Miami Center
Wed 08:28:58 PM 30.1478 -79.0669 192° South 435 501 35,900 -49 Descending Miami Center
Wed 08:29:59 PM 30.0317 -79.0989 193° South 433 498 35,900 49 Level Miami Center
Wed 08:31:00 PM 29.9164 -79.1264 192° South 433 498 36,000  Climbing Miami Center
Wed 08:32:01 PM 29.7992 -79.1569 193° South 432 497 35,900  Descending Miami Center
Wed 08:33:02 PM 29.6814 -79.1872 193° South 432 497 36,000 49 Climbing Miami Center
Wed 08:34:04 PM 29.5367 -79.2236 192° South 438 504 36,000  Level Miami Center
Wed 08:35:05 PM 29.4189 -79.2536 193° South 436 502 36,000  Level Miami Center
Wed 08:36:06 PM 29.2997 -79.2842 193° South 437 503 36,000  Level Miami Center
Wed 08:37:07 PM 29.1803 -79.3133 192° South 437 503 36,000  Level Miami Center
Wed 08:38:08 PM 29.0625 -79.3433 193° South 436 502 36,000 -49 Level Miami Center
Wed 08:39:09 PM 28.9464 -79.3725 192° South 430 495 35,900 -49 Descending Miami Center
Wed 08:40:10 PM 28.8289 -79.4033 193° South 430 495 35,900  Level Miami Center
Wed 08:41:11 PM 28.7108 -79.4325 192° South 434 499 35,900 49 Level Miami Center
Wed 08:42:13 PM 28.5914 -79.4619 192° South 434 499 36,000 49 Climbing Miami Center
Wed 08:43:14 PM 28.4736 -79.4917 193° South 434 499 36,000 -49 Level Miami Center
Wed 08:44:15 PM 28.3561 -79.5214 193° South 433 498 35,900 -49 Descending Miami Center
Wed 08:45:16 PM 28.2392 -79.5494 192° South 430 495 35,900  Level Miami Center
Wed 08:46:17 PM 28.0944 -79.5853 192° South 437 503 35,900 49 Level Miami Center
Wed 08:47:18 PM 27.9767 -79.6131 192° South 433 498 36,000 -738 Climbing Miami Center
Wed 08:48:19 PM 27.8517 -79.6433 192° South 433 498 34,400 -1,854 Descending Miami Center
Wed 08:49:21 PM 27.7381 -79.6700 192° South 433 498 32,200 -2,878 Descending Miami Center
Wed 08:50:22 PM 27.6061 -79.6664 179° South 456 525 28,500 -3,049 Descending Miami Center
Wed 08:51:23 PM 27.4719 -79.6614 178° South 457 526 26,000 -2,311 Descending Miami Center
Wed 08:52:24 PM 27.3533 -79.6561 178° South 447 514 23,800 -2,213 Descending Miami Center
Wed 08:53:25 PM 27.2261 -79.6517 178° South 438 504 21,500 -2,164 Descending Miami Center
Wed 08:54:26 PM 27.1153 -79.6472 178° South 417 480 19,400 -2,066 Descending Miami Center
Wed 08:55:27 PM 26.9975 -79.6417 178° South 408 470 17,300 -2,066 Descending Miami Center
Wed 08:56:28 PM 26.8878 -79.6375 178° South 384 442 15,200 -1,983 Descending Miami Center
Wed 08:57:25 PM 26.7931 -79.6633 194° South 366 421 13,400 -1,770 Descending Miami Center
Wed 08:58:30 PM 26.7044 -79.7056 203° Southwest 356 410 11,600 -1,765 Descending Miami Center
Wed 08:58:50 PM 26.6683 -79.7219 202° Southwest 348 400 10,900 -1,180 Descending Miami Center
Wed 08:59:31 PM 26.6175 -79.7456 203° Southwest 337 388 10,400 -776 Descending Miami Center
Wed 09:00:46 PM 26.5197 -79.7925 203° Southwest 271 312 9,400 -1,033 Descending Miami Center
Wed 09:01:33 PM 26.4619 -79.8206 203° Southwest 273 314 8,300 -1,180 Descending Miami Center
Wed 09:01:47 PM 26.4506 -79.8269 207° Southwest 267 307 8,200 -295 Descending Miami Center
Wed 09:02:34 PM 26.3906 -79.8544 202° Southwest 277 319 8,000 -678 Descending Miami Center
Wed 09:03:42 PM 26.3239 -79.9153 219° Southwest 292 336 6,900 -984 Descending Miami Center
Wed 09:04:36 PM 26.2683 -79.9678 220° Southwest 283 326 6,000 -470 Descending Miami Center
Wed 09:05:37 PM 26.2042 -80.0228 218° Southwest 283 326 6,000  Level Miami Center
Wed 09:06:38 PM 26.1667 -80.0947 240° Southwest 280 322 6,000 -787 Level Miami Center
Wed 09:07:39 PM 26.1489 -80.1783 257° West 281 323 4,400 -1,082 Descending Miami Center
Wed 09:08:40 PM 26.1489 -80.2650 270° West 282 325 3,800 -608 Descending Miami Center
Wed 09:08:58 PM 26.1494 -80.2944 271° West 270 311 3,600 -689 Descending Miami Center
Wed 09:09:41 PM 26.1486 -80.3447 269° West 258 297 3,100 -764 Descending Miami Center
Wed 09:09:53 PM 26.1369 -80.3608 231° Southwest 231 266 2,900 -492 Descending Miami Center
Wed 09:10:42 PM 26.1003 -80.3578 176° South 210 242 2,600 -627 Descending Miami Center
Wed 09:11:00 PM 26.0836 -80.3450 145° Southeast 173 199 2,200 -590 Descending Miami Center
Wed 09:11:43 PM 26.0781 -80.3167 102° East 183 211 2,000 -109 Descending Miami Center
Wed 09:11:55 PM 26.0778 -80.3028 91° East 176 203 2,100 -393 Climbing Miami Center
Wed 09:12:44 PM 26.0778 -80.2622 90° East 175 201 1,600 -627 Descending Miami Center
Wed 09:13:02 PM 26.0775 -80.2425 91° East 161 185 1,400 -677 Descending Miami Center
Wed 09:13:46 PM 26.0775 -80.2172 90° East 148 170 900 -716 Descending Miami Center
Wed 09:14:09 PM 26.0761 -80.1983 95° East 129 148 600 -590 Descending Miami Center
Wed 09:14:47 PM 26.0761 -80.1772 90° East 132 152 300 -474 Descending Miami Center
Wed 09:16:00 PM 26.0667 -80.1500 103° East  Level FlightAware Approximate

Login

Don't have an account? Register now (free) for customized features, flight alerts, and more!